createdAt,value
2019-01-18T00:00:22.000Z,99951
2019-01-18T00:01:22.000Z,99954
2019-01-18T00:03:22.000Z,99951
2019-01-18T00:05:07.000Z,99952
2019-01-18T00:06:22.000Z,99956
2019-01-18T00:08:22.000Z,99957
2019-01-18T00:10:22.000Z,99956
2019-01-18T00:12:22.000Z,99960
2019-01-18T00:14:22.000Z,99966
2019-01-18T00:15:22.000Z,99961
2019-01-18T00:17:07.000Z,99971
2019-01-18T00:18:22.000Z,99973
2019-01-18T00:20:07.000Z,99977
2019-01-18T00:21:22.000Z,99979
2019-01-18T00:22:22.000Z,99980
2019-01-18T00:24:22.000Z,99986
2019-01-18T00:26:22.000Z,99980
2019-01-18T00:28:22.000Z,99990
2019-01-18T00:29:22.000Z,99993
2019-01-18T00:31:22.000Z,99995
2019-01-18T00:33:22.000Z,99996
2019-01-18T00:34:22.000Z,100001
2019-01-18T00:36:07.000Z,100007
2019-01-18T00:37:22.000Z,100006
2019-01-18T00:39:22.000Z,100004
2019-01-18T00:41:22.000Z,100008
2019-01-18T00:43:22.000Z,100009
2019-01-18T00:44:22.000Z,100014
2019-01-18T00:45:22.000Z,100014
2019-01-18T00:47:07.000Z,100017
2019-01-18T00:48:22.000Z,100019
2019-01-18T00:50:22.000Z,100022
2019-01-18T00:52:22.000Z,100024
2019-01-18T00:54:22.000Z,100027
2019-01-18T00:56:22.000Z,100025
2019-01-18T00:58:22.000Z,100026
2019-01-18T01:00:22.000Z,100026
2019-01-18T01:01:22.000Z,100030
2019-01-18T01:02:22.000Z,100035
2019-01-18T01:04:22.000Z,100032
2019-01-18T01:06:22.000Z,100034
2019-01-18T01:08:22.000Z,100038
2019-01-18T01:10:22.000Z,100038
2019-01-18T01:11:22.000Z,100043
2019-01-18T01:12:22.000Z,100043
2019-01-18T01:14:22.000Z,100062
2019-01-18T01:16:22.000Z,100060
2019-01-18T01:18:22.000Z,100068
2019-01-18T01:19:22.000Z,100074
2019-01-18T01:21:07.000Z,100068
2019-01-18T01:22:22.000Z,100080
2019-01-18T01:24:22.000Z,100083
2019-01-18T01:26:22.000Z,100080
2019-01-18T01:28:22.000Z,100088
2019-01-18T01:30:22.000Z,100084
2019-01-18T01:32:07.000Z,100098
2019-01-18T01:33:22.000Z,100099
2019-01-18T01:34:22.000Z,100102
2019-01-18T01:36:22.000Z,100104
2019-01-18T01:38:22.000Z,100103
2019-01-18T01:39:22.000Z,100102
2019-01-18T01:41:07.000Z,100111
2019-01-18T01:42:22.000Z,100117
2019-01-18T01:43:22.000Z,100120
2019-01-18T01:45:22.000Z,100128
2019-01-18T01:46:22.000Z,100137
2019-01-18T01:48:22.000Z,100139
2019-01-18T01:50:22.000Z,100138
2019-01-18T01:51:22.000Z,100142
2019-01-18T01:52:22.000Z,100147
2019-01-18T01:54:22.000Z,100152
2019-01-18T01:55:22.000Z,100153
2019-01-18T01:57:07.000Z,100151
2019-01-18T01:59:22.000Z,100154
2019-01-18T02:01:22.000Z,100161
2019-01-18T02:02:22.000Z,100166
2019-01-18T02:04:22.000Z,100162
2019-01-18T02:05:22.000Z,100167
2019-01-18T02:07:22.000Z,100167
2019-01-18T02:08:22.000Z,100168
2019-01-18T02:09:22.000Z,100161
2019-01-18T02:10:22.000Z,100171
2019-01-18T02:11:22.000Z,100167
2019-01-18T02:13:22.000Z,100175
2019-01-18T02:15:22.000Z,100177
2019-01-18T02:16:22.000Z,100180
2019-01-18T02:18:07.000Z,100184
2019-01-18T02:19:22.000Z,100190
2019-01-18T02:21:22.000Z,100190
2019-01-18T02:23:22.000Z,100196
2019-01-18T02:25:22.000Z,100202
2019-01-18T02:26:22.000Z,100206
2019-01-18T02:28:22.000Z,100208
2019-01-18T02:29:22.000Z,100207
2019-01-18T02:31:22.000Z,100218
2019-01-18T02:33:22.000Z,100218
2019-01-18T02:35:22.000Z,100222
2019-01-18T02:36:22.000Z,100222
2019-01-18T02:38:07.000Z,100221
2019-01-18T02:39:22.000Z,100228
2019-01-18T02:41:22.000Z,100228
2019-01-18T02:43:22.000Z,100229
2019-01-18T02:45:22.000Z,100231
2019-01-18T02:46:22.000Z,100235
2019-01-18T02:48:22.000Z,100239
2019-01-18T02:49:22.000Z,100236
2019-01-18T02:51:22.000Z,100243
2019-01-18T02:52:52.000Z,100244
2019-01-18T02:54:22.000Z,100249
2019-01-18T02:56:22.000Z,100256
2019-01-18T02:58:22.000Z,100252
2019-01-18T03:00:22.000Z,100257
2019-01-18T03:01:22.000Z,100262
2019-01-18T03:03:07.000Z,100263
2019-01-18T03:04:22.000Z,100267
2019-01-18T03:05:22.000Z,100267
2019-01-18T03:06:22.000Z,100273
2019-01-18T03:08:22.000Z,100273
2019-01-18T03:10:22.000Z,100276
2019-01-18T03:12:22.000Z,100277
2019-01-18T03:14:22.000Z,100277
2019-01-18T03:16:22.000Z,100280
2019-01-18T03:17:22.000Z,100279
2019-01-18T03:18:22.000Z,100282
2019-01-18T03:19:22.000Z,100283
2019-01-18T03:21:21.000Z,100283
2019-01-18T03:22:21.000Z,100283
2019-01-18T03:24:21.000Z,100287
2019-01-18T03:26:21.000Z,100292
2019-01-18T03:28:21.000Z,100302
2019-01-18T03:30:06.000Z,100305
2019-01-18T03:32:21.000Z,100313
2019-01-18T03:34:21.000Z,100315
2019-01-18T03:36:21.000Z,100316
2019-01-18T03:38:21.000Z,100330
2019-01-18T03:40:21.000Z,100333
2019-01-18T03:42:21.000Z,100331
2019-01-18T03:44:06.000Z,100330
2019-01-18T03:45:21.000Z,100341
2019-01-18T03:47:21.000Z,100345
2019-01-18T03:49:06.000Z,100346
2019-01-18T03:50:21.000Z,100344
2019-01-18T03:52:21.000Z,100356
2019-01-18T03:53:21.000Z,100355
2019-01-18T03:54:21.000Z,100356
2019-01-18T03:56:21.000Z,100360
2019-01-18T03:58:21.000Z,100356
2019-01-18T04:00:21.000Z,100358
2019-01-18T04:02:21.000Z,100360
2019-01-18T04:04:21.000Z,100362
2019-01-18T04:06:21.000Z,100367
2019-01-18T04:08:21.000Z,100366
2019-01-18T04:09:21.000Z,100370
2019-01-18T04:11:21.000Z,100371
2019-01-18T04:13:06.000Z,100370
2019-01-18T04:14:21.000Z,100368
2019-01-18T04:15:21.000Z,100372
2019-01-18T04:17:06.000Z,100372
2019-01-18T04:18:21.000Z,100382
2019-01-18T04:20:21.000Z,100383
2019-01-18T04:21:21.000Z,100372
2019-01-18T04:23:21.000Z,100372
2019-01-18T04:25:06.000Z,100372
2019-01-18T04:26:22.000Z,100361
2019-01-18T04:28:22.000Z,100366
2019-01-18T04:30:22.000Z,100369
2019-01-18T04:32:22.000Z,100380
2019-01-18T04:33:22.000Z,100381
2019-01-18T04:35:22.000Z,100376
2019-01-18T04:36:22.000Z,100373
2019-01-18T04:38:22.000Z,100383
2019-01-18T04:40:06.000Z,100386
2019-01-18T04:41:22.000Z,100383
2019-01-18T04:43:22.000Z,100387
2019-01-18T04:44:22.000Z,100387
2019-01-18T04:46:06.000Z,100389
2019-01-18T04:47:22.000Z,100391
2019-01-18T04:48:22.000Z,100395
2019-01-18T04:50:22.000Z,100399
2019-01-18T04:51:22.000Z,100396
2019-01-18T04:53:06.000Z,100395
2019-01-18T04:54:22.000Z,100396
2019-01-18T04:55:22.000Z,100392
2019-01-18T04:57:22.000Z,100394
2019-01-18T04:59:22.000Z,100399
2019-01-18T05:01:22.000Z,100399
2019-01-18T05:02:22.000Z,100400
2019-01-18T05:04:06.000Z,100401
2019-01-18T05:05:22.000Z,100406
2019-01-18T05:07:22.000Z,100408
2019-01-18T05:08:22.000Z,100405
2019-01-18T05:09:22.000Z,100406
2019-01-18T05:11:22.000Z,100403
2019-01-18T05:12:22.000Z,100408
2019-01-18T05:14:22.000Z,100407
2019-01-18T05:15:22.000Z,100407
2019-01-18T05:17:06.000Z,100413
2019-01-18T05:18:22.000Z,100414
2019-01-18T05:20:22.000Z,100416
2019-01-18T05:21:22.000Z,100414
2019-01-18T05:23:22.000Z,100417
2019-01-18T05:25:22.000Z,100421
2019-01-18T05:26:22.000Z,100423
2019-01-18T05:27:22.000Z,100420
2019-01-18T05:29:22.000Z,100417
2019-01-18T05:30:22.000Z,100420
2019-01-18T05:32:22.000Z,100425
2019-01-18T05:33:22.000Z,100428
2019-01-18T05:35:22.000Z,100432
2019-01-18T05:36:22.000Z,100433
2019-01-18T05:38:07.000Z,100439
2019-01-18T05:39:22.000Z,100430
2019-01-18T05:41:22.000Z,100442
2019-01-18T05:43:22.000Z,100447
2019-01-18T05:45:22.000Z,100445
2019-01-18T05:47:22.000Z,100451
2019-01-18T05:49:22.000Z,100454
2019-01-18T05:50:22.000Z,100454
2019-01-18T05:52:22.000Z,100452
2019-01-18T05:54:22.000Z,100457
2019-01-18T05:55:22.000Z,100463
2019-01-18T05:57:22.000Z,100463
2019-01-18T05:59:22.000Z,100458
2019-01-18T06:00:22.000Z,100462
2019-01-18T06:02:22.000Z,100467
2019-01-18T06:03:22.000Z,100463
2019-01-18T06:05:22.000Z,100474
2019-01-18T06:07:22.000Z,100473
2019-01-18T06:09:22.000Z,100478
2019-01-18T06:10:22.000Z,100477
2019-01-18T06:11:22.000Z,100479
2019-01-18T06:12:22.000Z,100479
2019-01-18T06:14:22.000Z,100481
2019-01-18T06:15:22.000Z,100478
2019-01-18T06:17:22.000Z,100486
2019-01-18T06:18:22.000Z,100491
2019-01-18T06:20:22.000Z,100491
2019-01-18T06:21:22.000Z,100486
2019-01-18T06:23:22.000Z,100491
2019-01-18T06:25:22.000Z,100497
2019-01-18T06:27:22.000Z,100501
2019-01-18T06:29:22.000Z,100503
2019-01-18T06:31:22.000Z,100503
2019-01-18T06:33:22.000Z,100513
2019-01-18T06:34:52.000Z,100504
2019-01-18T06:36:22.000Z,100511
2019-01-18T06:37:22.000Z,100508
2019-01-18T06:38:22.000Z,100517
2019-01-18T06:40:22.000Z,100517
2019-01-18T06:42:22.000Z,100513
2019-01-18T06:43:22.000Z,100511
2019-01-18T06:45:22.000Z,100516
2019-01-18T06:46:22.000Z,100518
2019-01-18T06:47:22.000Z,100519
2019-01-18T06:48:22.000Z,100520
2019-01-18T06:49:22.000Z,100521
2019-01-18T06:51:22.000Z,100529
2019-01-18T06:52:22.000Z,100530
2019-01-18T06:54:22.000Z,100538
2019-01-18T06:56:22.000Z,100541
2019-01-18T06:57:22.000Z,100546
2019-01-18T06:59:22.000Z,100545
2019-01-18T07:00:22.000Z,100544
2019-01-18T07:02:22.000Z,100545
2019-01-18T07:04:22.000Z,100549
2019-01-18T07:06:22.000Z,100550
2019-01-18T07:07:22.000Z,100550
2019-01-18T07:09:22.000Z,100549
2019-01-18T07:10:22.000Z,100554
2019-01-18T07:11:22.000Z,100564
2019-01-18T07:12:22.000Z,100561
2019-01-18T07:13:22.000Z,100556
2019-01-18T07:15:22.000Z,100567
2019-01-18T07:16:22.000Z,100564
2019-01-18T07:18:22.000Z,100571
2019-01-18T07:20:22.000Z,100575
2019-01-18T07:26:38.000Z,100581
2019-01-18T07:28:23.000Z,100585
2019-01-18T07:30:38.000Z,100583
2019-01-18T07:31:38.000Z,100586
2019-01-18T07:32:38.000Z,100590
2019-01-18T07:34:38.000Z,100598
2019-01-18T07:36:37.000Z,100589
2019-01-18T07:37:38.000Z,100588
2019-01-18T07:39:22.000Z,100591
2019-01-18T07:40:38.000Z,100588
2019-01-18T07:42:38.000Z,100589
2019-01-18T07:43:38.000Z,100588
2019-01-18T07:45:38.000Z,100592
2019-01-18T07:47:38.000Z,100596
2019-01-18T07:49:38.000Z,100603
2019-01-18T07:51:22.000Z,100604
2019-01-18T07:52:38.000Z,100615
2019-01-18T07:54:23.000Z,100617
2019-01-18T07:55:38.000Z,100615
2019-01-18T07:57:38.000Z,100623
2019-01-18T07:59:38.000Z,100623
2019-01-18T08:01:38.000Z,100623
2019-01-18T08:03:38.000Z,100632
2019-01-18T08:05:38.000Z,100632
2019-01-18T08:07:38.000Z,100632
2019-01-18T08:09:38.000Z,100632
2019-01-18T08:11:38.000Z,100636
2019-01-18T08:13:38.000Z,100644
2019-01-18T08:15:38.000Z,100637
2019-01-18T08:16:38.000Z,100643
2019-01-18T08:18:38.000Z,100650
2019-01-18T08:20:22.000Z,100648
2019-01-18T08:21:22.000Z,100648
2019-01-18T08:22:38.000Z,100649
2019-01-18T08:24:38.000Z,100650
2019-01-18T08:25:38.000Z,100644
2019-01-18T08:27:38.000Z,100644
2019-01-18T08:29:38.000Z,100644
2019-01-18T08:31:23.000Z,100637
2019-01-18T08:33:38.000Z,100636
2019-01-18T08:35:38.000Z,100642
2019-01-18T08:36:38.000Z,100637
2019-01-18T08:38:38.000Z,100641
2019-01-18T08:40:37.000Z,100644
2019-01-18T08:41:38.000Z,100647
2019-01-18T08:43:22.000Z,100653
2019-01-18T08:44:37.000Z,100652
2019-01-18T08:45:37.000Z,100653
2019-01-18T08:47:22.000Z,100650
2019-01-18T08:48:23.000Z,100646
2019-01-18T08:58:24.000Z,100654
2019-01-18T08:59:24.000Z,100656
2019-01-18T09:01:09.000Z,100663
2019-01-18T09:02:24.000Z,100661
2019-01-18T09:04:24.000Z,100659
2019-01-18T09:06:09.000Z,100671
2019-01-18T09:07:24.000Z,100665
2019-01-18T09:09:24.000Z,100680
2019-01-18T09:10:24.000Z,100684
2019-01-18T09:12:24.000Z,100681
2019-01-18T09:14:24.000Z,100691
2019-01-18T09:15:24.000Z,100689
2019-01-18T09:17:24.000Z,100697
2019-01-18T09:18:24.000Z,100689
2019-01-18T09:20:24.000Z,100693
2019-01-18T09:22:24.000Z,100701
2019-01-18T09:24:24.000Z,100698
2019-01-18T09:26:24.000Z,100704
2019-01-18T09:28:24.000Z,100703
2019-01-18T09:30:09.000Z,100707
2019-01-18T09:31:09.000Z,100712
2019-01-18T09:32:24.000Z,100712
2019-01-18T09:33:24.000Z,100712
2019-01-18T09:34:54.000Z,100710
2019-01-18T09:36:24.000Z,100714
2019-01-18T09:38:24.000Z,100711
2019-01-18T09:40:24.000Z,100713
2019-01-18T09:41:24.000Z,100711
2019-01-18T09:42:24.000Z,100715
2019-01-18T09:44:24.000Z,100714
2019-01-18T09:46:09.000Z,100714
2019-01-18T09:47:24.000Z,100715
2019-01-18T09:49:24.000Z,100711
2019-01-18T09:51:24.000Z,100713
2019-01-18T09:53:24.000Z,100714
2019-01-18T09:55:24.000Z,100716
2019-01-18T09:56:24.000Z,100717
2019-01-18T09:58:24.000Z,100720
2019-01-18T10:00:24.000Z,100723
2019-01-18T10:02:09.000Z,100725
2019-01-18T10:03:24.000Z,100727
2019-01-18T10:05:24.000Z,100719
2019-01-18T10:07:24.000Z,100719
2019-01-18T10:09:24.000Z,100723
2019-01-18T10:11:24.000Z,100723
2019-01-18T10:13:24.000Z,100728
2019-01-18T10:14:24.000Z,100729
2019-01-18T10:16:24.000Z,100729
2019-01-18T10:17:54.000Z,100720
2019-01-18T10:19:24.000Z,100726
2019-01-18T10:20:24.000Z,100725
2019-01-18T10:21:24.000Z,100727
2019-01-18T10:23:24.000Z,100728
2019-01-18T10:24:24.000Z,100731
2019-01-18T10:26:24.000Z,100735
2019-01-18T10:28:24.000Z,100735
2019-01-18T10:30:24.000Z,100734
2019-01-18T10:31:54.000Z,100726
2019-01-18T10:33:24.000Z,100730
2019-01-18T10:34:24.000Z,100731
2019-01-18T10:36:09.000Z,100735
2019-01-18T10:37:54.000Z,100732
2019-01-18T10:39:24.000Z,100735
2019-01-18T10:41:24.000Z,100730
2019-01-18T10:42:54.000Z,100732
2019-01-18T10:44:24.000Z,100736
2019-01-18T10:45:24.000Z,100737
2019-01-18T10:46:24.000Z,100733
2019-01-18T10:48:09.000Z,100736
2019-01-18T10:49:24.000Z,100736
2019-01-18T10:51:09.000Z,100739
2019-01-18T10:52:24.000Z,100736
2019-01-18T10:53:24.000Z,100739
2019-01-18T10:55:24.000Z,100739
2019-01-18T10:57:09.000Z,100736
2019-01-18T10:58:24.000Z,100739
2019-01-18T10:59:24.000Z,100738
2019-01-18T11:01:24.000Z,100734
2019-01-18T11:03:24.000Z,100742
2019-01-18T11:04:24.000Z,100740
2019-01-18T11:05:24.000Z,100748
2019-01-18T11:07:09.000Z,100741
2019-01-18T11:08:24.000Z,100743
2019-01-18T11:10:24.000Z,100744
2019-01-18T11:12:24.000Z,100746
2019-01-18T11:14:09.000Z,100740
2019-01-18T11:15:24.000Z,100745
2019-01-18T11:17:24.000Z,100741
2019-01-18T11:19:24.000Z,100745
2019-01-18T11:21:24.000Z,100741
2019-01-18T11:23:24.000Z,100745
2019-01-18T11:25:24.000Z,100744
2019-01-18T11:27:24.000Z,100744
2019-01-18T11:28:24.000Z,100748
2019-01-18T11:30:24.000Z,100739
2019-01-18T11:32:09.000Z,100743
2019-01-18T11:34:09.000Z,100742
2019-01-18T11:36:24.000Z,100744
2019-01-18T11:38:24.000Z,100742
2019-01-18T11:39:24.000Z,100742
2019-01-18T11:40:24.000Z,100741
2019-01-18T11:42:24.000Z,100744
2019-01-18T11:43:24.000Z,100738
2019-01-18T11:45:09.000Z,100743
2019-01-18T11:46:24.000Z,100742
2019-01-18T11:48:24.000Z,100738
2019-01-18T11:50:24.000Z,100744
2019-01-18T11:52:09.000Z,100732
2019-01-18T11:54:24.000Z,100739
2019-01-18T11:55:24.000Z,100731
2019-01-18T11:57:24.000Z,100727
2019-01-18T11:58:24.000Z,100734
2019-01-18T12:00:24.000Z,100731
2019-01-18T12:02:08.000Z,100728
2019-01-18T12:03:24.000Z,100731
2019-01-18T12:04:24.000Z,100739
2019-01-18T12:05:24.000Z,100730
2019-01-18T12:06:24.000Z,100732
2019-01-18T12:08:24.000Z,100727
2019-01-18T12:10:24.000Z,100726
2019-01-18T12:11:24.000Z,100730
2019-01-18T12:13:08.000Z,100738
2019-01-18T12:14:24.000Z,100734
2019-01-18T12:16:24.000Z,100731
2019-01-18T12:18:24.000Z,100728
2019-01-18T12:20:24.000Z,100721
2019-01-18T12:22:24.000Z,100720
2019-01-18T12:24:24.000Z,100723
2019-01-18T12:26:24.000Z,100718
2019-01-18T12:28:09.000Z,100712
2019-01-18T12:29:24.000Z,100715
2019-01-18T12:30:24.000Z,100711
2019-01-18T12:31:24.000Z,100713
2019-01-18T12:32:24.000Z,100724
2019-01-18T12:34:24.000Z,100716
2019-01-18T12:36:24.000Z,100710
2019-01-18T12:38:24.000Z,100704
2019-01-18T12:39:24.000Z,100708
2019-01-18T12:40:24.000Z,100711
2019-01-18T12:42:24.000Z,100708
2019-01-18T12:43:24.000Z,100704
2019-01-18T12:45:24.000Z,100699
2019-01-18T12:46:24.000Z,100703
2019-01-18T12:48:24.000Z,100705
2019-01-18T12:50:08.000Z,100697
2019-01-18T12:51:24.000Z,100706
2019-01-18T12:53:08.000Z,100704
2019-01-18T12:54:24.000Z,100704
2019-01-18T12:56:08.000Z,100697
2019-01-18T12:57:24.000Z,100699
2019-01-18T12:58:24.000Z,100692
2019-01-18T13:00:24.000Z,100694
2019-01-18T13:01:24.000Z,100694
2019-01-18T13:03:24.000Z,100692
2019-01-18T13:05:24.000Z,100693
2019-01-18T13:07:24.000Z,100693
2019-01-18T13:09:24.000Z,100695
2019-01-18T13:11:24.000Z,100691
2019-01-18T13:13:24.000Z,100693
2019-01-18T13:14:54.000Z,100687
2019-01-18T13:16:24.000Z,100693
2019-01-18T13:17:24.000Z,100683
2019-01-18T13:19:09.000Z,100686
2019-01-18T13:20:24.000Z,100685
2019-01-18T13:22:24.000Z,100681
2019-01-18T13:24:24.000Z,100681
2019-01-18T13:25:24.000Z,100689
2019-01-18T13:27:24.000Z,100677
2019-01-18T13:29:24.000Z,100681
2019-01-18T13:30:24.000Z,100689
2019-01-18T13:32:24.000Z,100681
2019-01-18T13:34:24.000Z,100683
2019-01-18T13:36:24.000Z,100680
2019-01-18T13:38:24.000Z,100675
2019-01-18T13:39:53.000Z,100687
2019-01-18T13:41:24.000Z,100681
2019-01-18T13:43:24.000Z,100679
2019-01-18T13:44:24.000Z,100677
2019-01-18T13:46:24.000Z,100679
2019-01-18T13:47:24.000Z,100671
2019-01-18T13:49:24.000Z,100676
2019-01-18T13:51:24.000Z,100673
2019-01-18T13:52:24.000Z,100674
2019-01-18T13:54:24.000Z,100687
2019-01-18T13:56:24.000Z,100682
2019-01-18T13:58:09.000Z,100678
2019-01-18T14:00:24.000Z,100681
2019-01-18T14:01:24.000Z,100679
2019-01-18T14:02:24.000Z,100683
2019-01-18T14:04:09.000Z,100683
2019-01-18T14:05:24.000Z,100680
2019-01-18T14:06:24.000Z,100686
2019-01-18T14:08:24.000Z,100684
2019-01-18T14:10:09.000Z,100685
2019-01-18T14:11:24.000Z,100680
2019-01-18T14:13:09.000Z,100687
2019-01-18T14:14:24.000Z,100686
2019-01-18T14:15:24.000Z,100690
2019-01-18T14:17:24.000Z,100689
2019-01-18T14:19:09.000Z,100689
2019-01-18T14:20:09.000Z,100692
2019-01-18T14:22:24.000Z,100695
2019-01-18T14:24:24.000Z,100693
2019-01-18T14:26:24.000Z,100693
2019-01-18T14:27:24.000Z,100696
2019-01-18T14:29:09.000Z,100693
2019-01-18T14:30:24.000Z,100700
2019-01-18T14:32:24.000Z,100696
2019-01-18T14:34:24.000Z,100699
2019-01-18T14:35:24.000Z,100694
2019-01-18T14:37:24.000Z,100697
2019-01-18T14:39:09.000Z,100695
2019-01-18T14:40:09.000Z,100705
2019-01-18T14:41:24.000Z,100700
2019-01-18T14:43:24.000Z,100699
2019-01-18T14:44:24.000Z,100697
2019-01-18T14:46:09.000Z,100700
2019-01-18T14:47:24.000Z,100699
2019-01-18T14:49:09.000Z,100693
2019-01-18T14:50:24.000Z,100696
2019-01-18T14:51:24.000Z,100691
2019-01-18T14:53:24.000Z,100693
2019-01-18T14:54:24.000Z,100693
2019-01-18T14:56:24.000Z,100700
2019-01-18T14:58:24.000Z,100694
2019-01-18T15:00:24.000Z,100693
2019-01-18T15:02:09.000Z,100700
2019-01-18T15:03:24.000Z,100700
2019-01-18T15:05:09.000Z,100699
2019-01-18T15:06:24.000Z,100706
2019-01-18T15:07:54.000Z,100698
2019-01-18T15:09:24.000Z,100696
2019-01-18T15:11:24.000Z,100702
2019-01-18T15:12:24.000Z,100705
2019-01-18T15:14:24.000Z,100697
2019-01-18T15:16:24.000Z,100698
2019-01-18T15:18:24.000Z,100697
2019-01-18T15:19:24.000Z,100705
2019-01-18T15:20:24.000Z,100697
2019-01-18T15:21:24.000Z,100698
2019-01-18T15:23:09.000Z,100705
2019-01-18T15:24:24.000Z,100700
2019-01-18T15:25:24.000Z,100698
2019-01-18T15:27:09.000Z,100703
2019-01-18T15:28:24.000Z,100706
2019-01-18T15:30:24.000Z,100703
2019-01-18T15:32:24.000Z,100709
2019-01-18T15:34:24.000Z,100702
2019-01-18T15:36:24.000Z,100709
2019-01-18T15:38:09.000Z,100706
2019-01-18T15:39:24.000Z,100707
2019-01-18T15:41:09.000Z,100710
2019-01-18T15:42:24.000Z,100709
2019-01-18T15:43:24.000Z,100710
2019-01-18T15:45:24.000Z,100713
2019-01-18T15:47:09.000Z,100711
2019-01-18T15:48:24.000Z,100711
2019-01-18T15:49:24.000Z,100707
2019-01-18T15:51:24.000Z,100712
2019-01-18T15:53:24.000Z,100709
2019-01-18T15:55:09.000Z,100712
2019-01-18T15:56:24.000Z,100715
2019-01-18T15:57:24.000Z,100718
2019-01-18T15:59:24.000Z,100720
2019-01-18T16:01:24.000Z,100720
2019-01-18T16:02:24.000Z,100721
2019-01-18T16:04:24.000Z,100719
2019-01-18T16:06:24.000Z,100713
2019-01-18T16:08:24.000Z,100721
2019-01-18T16:10:24.000Z,100724
2019-01-18T16:12:24.000Z,100727
2019-01-18T16:14:24.000Z,100724
2019-01-18T16:15:24.000Z,100722
2019-01-18T16:17:08.000Z,100718
2019-01-18T16:18:24.000Z,100718
2019-01-18T16:19:24.000Z,100726
2019-01-18T16:20:24.000Z,100716
2019-01-18T16:22:24.000Z,100722
2019-01-18T16:24:24.000Z,100722
2019-01-18T16:25:24.000Z,100722
2019-01-18T16:26:24.000Z,100723
2019-01-18T16:28:24.000Z,100717
2019-01-18T16:30:24.000Z,100722
2019-01-18T16:31:24.000Z,100720
2019-01-18T16:32:24.000Z,100719
2019-01-18T16:34:24.000Z,100722
2019-01-18T16:35:24.000Z,100723
2019-01-18T16:37:24.000Z,100719
2019-01-18T16:39:08.000Z,100719
2019-01-18T16:49:10.000Z,100713
2019-01-18T16:50:54.000Z,100713
2019-01-18T16:52:10.000Z,100714
2019-01-18T16:53:10.000Z,100720
2019-01-18T16:55:10.000Z,100714
2019-01-18T16:56:39.000Z,100715
2019-01-18T16:58:10.000Z,100713
2019-01-18T16:59:10.000Z,100706
2019-01-18T17:01:10.000Z,100712
2019-01-18T17:03:10.000Z,100708
2019-01-18T17:04:54.000Z,100705
2019-01-18T17:06:10.000Z,100703
2019-01-18T17:07:54.000Z,100707
2019-01-18T17:09:10.000Z,100700
2019-01-18T17:10:10.000Z,100700
2019-01-18T17:12:10.000Z,100702
2019-01-18T17:14:10.000Z,100700
2019-01-18T17:16:10.000Z,100701
2019-01-18T17:18:10.000Z,100699
2019-01-18T17:19:10.000Z,100696
2019-01-18T17:21:10.000Z,100699
2019-01-18T17:22:55.000Z,100699
2019-01-18T17:24:10.000Z,100694
2019-01-18T17:26:10.000Z,100694
2019-01-18T17:28:10.000Z,100692
2019-01-18T17:30:10.000Z,100696
2019-01-18T17:32:10.000Z,100692
2019-01-18T17:34:10.000Z,100692
2019-01-18T17:36:10.000Z,100694
2019-01-18T17:38:10.000Z,100692
2019-01-18T17:39:10.000Z,100692
2019-01-18T17:41:10.000Z,100697
2019-01-18T17:42:10.000Z,100697
2019-01-18T17:44:10.000Z,100693
2019-01-18T17:46:10.000Z,100697
2019-01-18T17:48:10.000Z,100698
2019-01-18T17:50:10.000Z,100694
2019-01-18T17:51:10.000Z,100694
2019-01-18T17:52:10.000Z,100697
2019-01-18T17:54:10.000Z,100697
2019-01-18T17:55:10.000Z,100703
2019-01-18T17:57:10.000Z,100701
2019-01-18T17:58:10.000Z,100699
2019-01-18T18:00:10.000Z,100697
2019-01-18T18:01:10.000Z,100697
2019-01-18T18:02:10.000Z,100699
2019-01-18T18:03:40.000Z,100699
2019-01-18T18:05:10.000Z,100701
2019-01-18T18:06:10.000Z,100701
2019-01-18T18:08:10.000Z,100698
2019-01-18T18:10:10.000Z,100698
2019-01-18T18:11:10.000Z,100697
2019-01-18T18:13:10.000Z,100698
2019-01-18T18:14:10.000Z,100695
2019-01-18T18:15:55.000Z,100698
2019-01-18T18:17:10.000Z,100699
2019-01-18T18:19:10.000Z,100696
2019-01-18T18:20:10.000Z,100702
2019-01-18T18:22:10.000Z,100697
2019-01-18T18:23:10.000Z,100705
2019-01-18T18:25:10.000Z,100692
2019-01-18T18:27:10.000Z,100697
2019-01-18T18:29:10.000Z,100698
2019-01-18T18:30:55.000Z,100695
2019-01-18T18:33:10.000Z,100705
2019-01-18T18:34:10.000Z,100694
2019-01-18T18:36:10.000Z,100700
2019-01-18T18:37:10.000Z,100697
2019-01-18T18:38:10.000Z,100696
2019-01-18T18:39:55.000Z,100701
2019-01-18T18:41:10.000Z,100696
2019-01-18T18:42:10.000Z,100691
2019-01-18T18:44:10.000Z,100692
2019-01-18T18:46:10.000Z,100690
2019-01-18T18:47:10.000Z,100700
2019-01-18T18:49:10.000Z,100701
2019-01-18T18:50:55.000Z,100688
2019-01-18T18:52:10.000Z,100685
2019-01-18T18:53:55.000Z,100690
2019-01-18T18:55:10.000Z,100703
2019-01-18T18:57:10.000Z,100693
2019-01-18T18:59:10.000Z,100693
2019-01-18T19:00:55.000Z,100698
2019-01-18T19:02:10.000Z,100697
2019-01-18T19:03:10.000Z,100691
2019-01-18T19:05:10.000Z,100691
2019-01-18T19:06:10.000Z,100689
2019-01-18T19:07:55.000Z,100687
2019-01-18T19:09:10.000Z,100686
2019-01-18T19:11:10.000Z,100686
2019-01-18T19:13:10.000Z,100681
2019-01-18T19:15:10.000Z,100686
2019-01-18T19:16:10.000Z,100682
2019-01-18T19:17:10.000Z,100683
2019-01-18T19:19:10.000Z,100685
2019-01-18T19:20:55.000Z,100684
2019-01-18T19:22:10.000Z,100683
2019-01-18T19:23:10.000Z,100686
2019-01-18T19:24:10.000Z,100684
2019-01-18T19:25:39.000Z,100684
2019-01-18T19:27:10.000Z,100689
2019-01-18T19:29:10.000Z,100684
2019-01-18T19:31:10.000Z,100685
2019-01-18T19:33:10.000Z,100677
2019-01-18T19:35:10.000Z,100680
2019-01-18T19:36:10.000Z,100681
2019-01-18T19:38:10.000Z,100681
2019-01-18T19:39:10.000Z,100682
2019-01-18T19:41:10.000Z,100678
2019-01-18T19:42:10.000Z,100685
2019-01-18T19:44:10.000Z,100681
2019-01-18T19:46:10.000Z,100686
2019-01-18T19:47:55.000Z,100681
2019-01-18T19:49:10.000Z,100683
2019-01-18T19:51:10.000Z,100676
2019-01-18T19:53:10.000Z,100678
2019-01-18T19:54:10.000Z,100678
2019-01-18T19:56:10.000Z,100672
2019-01-18T19:58:10.000Z,100678
2019-01-18T19:59:55.000Z,100677
2019-01-18T20:02:10.000Z,100681
2019-01-18T20:03:10.000Z,100684
2019-01-18T20:04:10.000Z,100682
2019-01-18T20:06:10.000Z,100686
2019-01-18T20:08:10.000Z,100686
2019-01-18T20:10:10.000Z,100682
2019-01-18T20:11:10.000Z,100686
2019-01-18T20:13:10.000Z,100682
2019-01-18T20:15:10.000Z,100685
2019-01-18T20:16:10.000Z,100688
2019-01-18T20:18:10.000Z,100685
2019-01-18T20:19:55.000Z,100684
2019-01-18T20:20:55.000Z,100685
2019-01-18T20:22:10.000Z,100684
2019-01-18T20:23:10.000Z,100686